sensor_id;sensor_type;location;lat;lon;timestamp;pressure;altitude;pressure_sealevel;temperature;humidity
62124;BME280;48110;47.532;19.078;2023-03-15T00:02:38;99140.81;;;9.28;100.00
62124;BME280;48110;47.532;19.078;2023-03-15T00:05:48;99141.63;;;9.29;100.00
62124;BME280;48110;47.532;19.078;2023-03-15T00:09:03;99150.31;;;9.23;100.00
62124;BME280;48110;47.532;19.078;2023-03-15T00:12:09;99161.09;;;9.21;100.00
62124;BME280;48110;47.532;19.078;2023-03-15T00:15:18;99162.56;;;9.24;100.00
62124;BME280;48110;47.532;19.078;2023-03-15T00:18:26;99164.28;;;9.16;100.00
62124;BME280;48110;47.532;19.078;2023-03-15T00:21:34;99173.69;;;9.19;100.00
62124;BME280;48110;47.532;19.078;2023-03-15T00:24:42;99177.34;;;9.18;100.00
62124;BME280;48110;47.532;19.078;2023-03-15T00:27:52;99174.25;;;9.14;100.00
62124;BME280;48110;47.532;19.078;2023-03-15T00:31:18;99173.88;;;9.18;100.00
62124;BME280;48110;47.532;19.078;2023-03-15T00:34:26;99182.56;;;9.11;100.00
62124;BME280;48110;47.532;19.078;2023-03-15T00:37:34;99187.22;;;9.09;100.00
62124;BME280;48110;47.532;19.078;2023-03-15T00:40:44;99192.13;;;9.12;100.00
62124;BME280;48110;47.532;19.078;2023-03-15T00:43:52;99174.19;;;9.08;100.00
62124;BME280;48110;47.532;19.078;2023-03-15T00:47:00;99173.94;;;9.03;100.00
62124;BME280;48110;47.532;19.078;2023-03-15T00:50:08;99174.09;;;9.01;100.00
62124;BME280;48110;47.532;19.078;2023-03-15T00:53:16;99178.56;;;9.01;100.00
62124;BME280;48110;47.532;19.078;2023-03-15T00:56:25;99171.84;;;8.98;100.00
62124;BME280;48110;47.532;19.078;2023-03-15T00:59:34;99156.53;;;8.94;100.00
62124;BME280;48110;47.532;19.078;2023-03-15T01:02:43;99152.63;;;8.90;100.00
62124;BME280;48110;47.532;19.078;2023-03-15T01:05:51;99148.09;;;8.84;100.00
62124;BME280;48110;47.532;19.078;2023-03-15T01:09:14;99156.44;;;8.87;100.00
62124;BME280;48110;47.532;19.078;2023-03-15T01:12:22;99149.72;;;8.85;100.00
62124;BME280;48110;47.532;19.078;2023-03-15T01:15:29;99148.09;;;8.84;100.00
62124;BME280;48110;47.532;19.078;2023-03-15T01:18:36;99152.53;;;8.83;100.00
62124;BME280;48110;47.532;19.078;2023-03-15T01:21:44;99160.41;;;8.77;100.00
62124;BME280;48110;47.532;19.078;2023-03-15T01:24:52;99151.28;;;8.79;100.00
62124;BME280;48110;47.532;19.078;2023-03-15T01:27:59;99152.59;;;8.68;100.00
62124;BME280;48110;47.532;19.078;2023-03-15T01:31:08;99152.59;;;8.68;100.00
62124;BME280;48110;47.532;19.078;2023-03-15T01:34:18;99160.69;;;8.67;100.00
62124;BME280;48110;47.532;19.078;2023-03-15T01:37:27;99164.72;;;8.63;100.00
62124;BME280;48110;47.532;19.078;2023-03-15T01:40:38;99164.72;;;8.63;100.00
62124;BME280;48110;47.532;19.078;2023-03-15T01:43:49;99164.28;;;8.59;100.00
62124;BME280;48110;47.532;19.078;2023-03-15T01:46:59;99159.38;;;8.56;100.00
62124;BME280;48110;47.532;19.078;2023-03-15T01:50:09;99150.97;;;8.53;100.00
62124;BME280;48110;47.532;19.078;2023-03-15T01:53:19;99159.44;;;8.48;100.00
62124;BME280;48110;47.532;19.078;2023-03-15T01:56:23;99149.88;;;8.47;100.00
62124;BME280;48110;47.532;19.078;2023-03-15T01:59:32;99153.88;;;8.43;100.00
62124;BME280;48110;47.532;19.078;2023-03-15T02:02:42;99159.16;;;8.43;100.00
62124;BME280;48110;47.532;19.078;2023-03-15T02:05:53;99153.25;;;8.41;100.00
62124;BME280;48110;47.532;19.078;2023-03-15T02:09:04;99139.13;;;8.34;100.00
62124;BME280;48110;47.532;19.078;2023-03-15T02:12:14;99140.78;;;8.35;100.00
62124;BME280;48110;47.532;19.078;2023-03-15T02:15:23;99154.37;;;8.32;100.00
62124;BME280;48110;47.532;19.078;2023-03-15T02:18:29;99149.59;;;8.27;100.00
62124;BME280;48110;47.532;19.078;2023-03-15T02:21:53;99143.84;;;8.24;100.00
62124;BME280;48110;47.532;19.078;2023-03-15T02:25:13;99155.63;;;8.21;100.00
62124;BME280;48110;47.532;19.078;2023-03-15T02:28:22;99163.72;;;8.20;100.00
62124;BME280;48110;47.532;19.078;2023-03-15T02:31:27;99157.81;;;8.18;100.00
62124;BME280;48110;47.532;19.078;2023-03-15T02:34:34;99155.50;;;8.15;100.00
62124;BME280;48110;47.532;19.078;2023-03-15T02:37:39;99158.88;;;8.09;100.00
62124;BME280;48110;47.532;19.078;2023-03-15T02:40:54;99166.78;;;8.09;100.00
62124;BME280;48110;47.532;19.078;2023-03-15T02:43:59;99175.47;;;8.03;100.00
62124;BME280;48110;47.532;19.078;2023-03-15T02:47:10;99178.72;;;8.05;100.00
62124;BME280;48110;47.532;19.078;2023-03-15T02:50:20;99178.81;;;7.97;100.00
62124;BME280;48110;47.532;19.078;2023-03-15T02:53:27;99173.53;;;7.97;100.00
62124;BME280;48110;47.532;19.078;2023-03-15T02:56:34;99186.28;;;7.93;100.00
62124;BME280;48110;47.532;19.078;2023-03-15T02:59:39;99179.97;;;7.94;100.00
62124;BME280;48110;47.532;19.078;2023-03-15T03:02:46;99190.38;;;7.96;100.00
62124;BME280;48110;47.532;19.078;2023-03-15T03:05:52;99178.41;;;7.85;100.00
62124;BME280;48110;47.532;19.078;2023-03-15T03:08:58;99181.25;;;7.83;100.00
62124;BME280;48110;47.532;19.078;2023-03-15T03:12:08;99182.88;;;7.84;100.00
62124;BME280;48110;47.532;19.078;2023-03-15T03:15:16;99189.81;;;7.85;100.00
62124;BME280;48110;47.532;19.078;2023-03-15T03:18:26;99190.00;;;7.84;100.00
62124;BME280;48110;47.532;19.078;2023-03-15T03:21:34;99193.97;;;7.80;100.00
62124;BME280;48110;47.532;19.078;2023-03-15T03:24:40;99190.34;;;7.81;100.00
62124;BME280;48110;47.532;19.078;2023-03-15T03:27:51;99178.69;;;7.75;100.00
62124;BME280;48110;47.532;19.078;2023-03-15T03:31:04;99179.88;;;7.73;100.00
62124;BME280;48110;47.532;19.078;2023-03-15T03:34:12;99177.41;;;7.71;100.00
62124;BME280;48110;47.532;19.078;2023-03-15T03:37:23;99172.28;;;7.70;100.00
62124;BME280;48110;47.532;19.078;2023-03-15T03:40:30;99173.59;;;7.74;100.00
62124;BME280;48110;47.532;19.078;2023-03-15T03:43:40;99172.22;;;7.78;100.00
62124;BME280;48110;47.532;19.078;2023-03-15T03:46:47;99174.06;;;7.77;100.00
62124;BME280;48110;47.532;19.078;2023-03-15T03:49:56;99175.88;;;7.77;100.00
62124;BME280;48110;47.532;19.078;2023-03-15T03:53:01;99176.78;;;7.69;100.00
62124;BME280;48110;47.532;19.078;2023-03-15T03:56:08;99179.22;;;7.71;100.00
62124;BME280;48110;47.532;19.078;2023-03-15T03:59:16;99180.22;;;7.70;100.00
62124;BME280;48110;47.532;19.078;2023-03-15T04:02:26;99171.66;;;7.68;100.00
62124;BME280;48110;47.532;19.078;2023-03-15T04:05:35;99165.19;;;7.70;100.00
62124;BME280;48110;47.532;19.078;2023-03-15T04:08:43;99177.56;;;7.70;100.00
62124;BME280;48110;47.532;19.078;2023-03-15T04:11:54;99176.78;;;7.69;100.00
62124;BME280;48110;47.532;19.078;2023-03-15T04:15:03;99169.47;;;7.71;100.00
62124;BME280;48110;47.532;19.078;2023-03-15T04:18:09;99174.66;;;7.79;100.00
62124;BME280;48110;47.532;19.078;2023-03-15T04:21:17;99185.44;;;7.78;100.00
62124;BME280;48110;47.532;19.078;2023-03-15T04:24:29;99177.22;;;7.73;100.00
62124;BME280;48110;47.532;19.078;2023-03-15T04:27:38;99187.63;;;7.74;100.00
62124;BME280;48110;47.532;19.078;2023-03-15T04:30:47;99181.53;;;7.74;100.00
62124;BME280;48110;47.532;19.078;2023-03-15T04:33:56;99193.69;;;7.75;100.00
62124;BME280;48110;47.532;19.078;2023-03-15T04:37:04;99213.00;;;7.75;100.00
62124;BME280;48110;47.532;19.078;2023-03-15T04:40:13;99223.50;;;7.61;100.00
62124;BME280;48110;47.532;19.078;2023-03-15T04:43:23;99200.81;;;7.52;100.00
62124;BME280;48110;47.532;19.078;2023-03-15T04:46:30;99217.56;;;7.44;100.00
62124;BME280;48110;47.532;19.078;2023-03-15T04:49:42;99214.78;;;7.37;100.00
62124;BME280;48110;47.532;19.078;2023-03-15T04:52:48;99214.84;;;7.29;100.00
62124;BME280;48110;47.532;19.078;2023-03-15T04:55:58;99227.03;;;7.30;100.00
62124;BME280;48110;47.532;19.078;2023-03-15T04:59:09;99214.78;;;7.15;100.00
62124;BME280;48110;47.532;19.078;2023-03-15T05:02:18;99228.19;;;7.05;100.00
62124;BME280;48110;47.532;19.078;2023-03-15T05:05:25;99228.88;;;6.99;100.00
62124;BME280;48110;47.532;19.078;2023-03-15T05:08:33;99243.44;;;6.87;100.00
62124;BME280;48110;47.532;19.078;2023-03-15T05:11:43;99254.19;;;6.77;100.00
62124;BME280;48110;47.532;19.078;2023-03-15T05:14:52;99248.59;;;6.72;100.00
62124;BME280;48110;47.532;19.078;2023-03-15T05:18:00;99242.88;;;6.61;100.00
62124;BME280;48110;47.532;19.078;2023-03-15T05:21:08;99237.75;;;6.59;100.00
62124;BME280;48110;47.532;19.078;2023-03-15T05:24:16;99257.72;;;6.45;100.00
62124;BME280;48110;47.532;19.078;2023-03-15T05:27:25;99234.06;;;6.37;100.00
62124;BME280;48110;47.532;19.078;2023-03-15T05:30:33;99247.91;;;6.23;100.00
62124;BME280;48110;47.532;19.078;2023-03-15T05:33:39;99246.09;;;6.16;100.00
62124;BME280;48110;47.532;19.078;2023-03-15T05:36:52;99241.53;;;6.09;100.00
62124;BME280;48110;47.532;19.078;2023-03-15T05:40:03;99239.37;;;5.97;100.00
62124;BME280;48110;47.532;19.078;2023-03-15T05:43:15;99243.34;;;5.93;100.00
62124;BME280;48110;47.532;19.078;2023-03-15T05:46:25;99236.78;;;5.89;100.00
62124;BME280;48110;47.532;19.078;2023-03-15T05:49:34;99239.87;;;5.84;100.00
62124;BME280;48110;47.532;19.078;2023-03-15T05:52:44;99233.59;;;5.77;100.00
62124;BME280;48110;47.532;19.078;2023-03-15T05:55:54;99249.59;;;5.76;100.00
62124;BME280;48110;47.532;19.078;2023-03-15T05:59:02;99253.69;;;5.78;100.00
62124;BME280;48110;47.532;19.078;2023-03-15T06:02:11;99265.38;;;5.76;100.00
62124;BME280;48110;47.532;19.078;2023-03-15T06:05:20;99260.25;;;5.74;100.00
62124;BME280;48110;47.532;19.078;2023-03-15T06:08:26;99250.06;;;5.79;100.00
62124;BME280;48110;47.532;19.078;2023-03-15T06:11:35;99268.00;;;5.76;100.00
62124;BME280;48110;47.532;19.078;2023-03-15T06:14:46;99256.97;;;5.64;100.00
62124;BME280;48110;47.532;19.078;2023-03-15T06:17:56;99268.97;;;5.66;100.00
62124;BME280;48110;47.532;19.078;2023-03-15T06:21:05;99284.28;;;5.71;100.00
62124;BME280;48110;47.532;19.078;2023-03-15T06:24:11;99286.25;;;5.69;100.00
62124;BME280;48110;47.532;19.078;2023-03-15T06:27:20;99285.75;;;5.65;100.00
62124;BME280;48110;47.532;19.078;2023-03-15T06:30:29;99291.84;;;5.66;100.00
62124;BME280;48110;47.532;19.078;2023-03-15T06:33:37;99299.06;;;5.64;100.00
62124;BME280;48110;47.532;19.078;2023-03-15T06:36:43;99300.22;;;5.69;100.00
62124;BME280;48110;47.532;19.078;2023-03-15T06:39:50;99298.25;;;5.63;100.00
62124;BME280;48110;47.532;19.078;2023-03-15T06:43:00;99296.09;;;5.59;100.00
62124;BME280;48110;47.532;19.078;2023-03-15T06:46:12;99299.87;;;5.64;100.00
62124;BME280;48110;47.532;19.078;2023-03-15T06:49:21;99303.34;;;5.65;100.00
62124;BME280;48110;47.532;19.078;2023-03-15T06:52:30;99306.47;;;5.68;100.00
62124;BME280;48110;47.532;19.078;2023-03-15T06:55:42;99303.16;;;5.58;100.00
62124;BME280;48110;47.532;19.078;2023-03-15T06:58:54;99300.06;;;5.71;100.00
62124;BME280;48110;47.532;19.078;2023-03-15T07:02:00;99303.53;;;5.80;100.00
62124;BME280;48110;47.532;19.078;2023-03-15T07:05:06;99315.53;;;5.82;100.00
62124;BME280;48110;47.532;19.078;2023-03-15T07:08:13;99324.06;;;5.76;100.00
62124;BME280;48110;47.532;19.078;2023-03-15T07:11:20;99321.44;;;5.76;100.00
62124;BME280;48110;47.532;19.078;2023-03-15T07:14:29;99339.53;;;5.79;100.00
62124;BME280;48110;47.532;19.078;2023-03-15T07:17:36;99339.69;;;5.86;100.00
62124;BME280;48110;47.532;19.078;2023-03-15T07:20:44;99340.53;;;5.86;100.00
62124;BME280;48110;47.532;19.078;2023-03-15T07:23:53;99351.06;;;5.86;100.00
62124;BME280;48110;47.532;19.078;2023-03-15T07:27:00;99344.97;;;5.86;100.00
62124;BME280;48110;47.532;19.078;2023-03-15T07:30:09;99342.22;;;5.87;100.00
62124;BME280;48110;47.532;19.078;2023-03-15T07:33:17;99351.59;;;5.98;100.00
62124;BME280;48110;47.532;19.078;2023-03-15T07:36:27;99348.59;;;5.85;100.00
62124;BME280;48110;47.532;19.078;2023-03-15T07:39:38;99349.12;;;5.88;100.00
62124;BME280;48110;47.532;19.078;2023-03-15T07:42:44;99365.94;;;5.95;100.00
62124;BME280;48110;47.532;19.078;2023-03-15T07:45:54;99373.00;;;5.95;100.00
62124;BME280;48110;47.532;19.078;2023-03-15T07:49:02;99372.50;;;6.07;100.00
62124;BME280;48110;47.532;19.078;2023-03-15T07:52:09;99370.88;;;6.15;100.00
62124;BME280;48110;47.532;19.078;2023-03-15T07:55:15;99357.38;;;6.09;100.00
62124;BME280;48110;47.532;19.078;2023-03-15T07:58:25;99367.22;;;6.16;100.00
62124;BME280;48110;47.532;19.078;2023-03-15T08:01:34;99363.13;;;6.13;100.00
62124;BME280;48110;47.532;19.078;2023-03-15T08:04:42;99368.25;;;6.15;100.00
62124;BME280;48110;47.532;19.078;2023-03-15T08:07:49;99371.69;;;6.31;100.00
62124;BME280;48110;47.532;19.078;2023-03-15T08:10:58;99373.84;;;6.28;100.00
62124;BME280;48110;47.532;19.078;2023-03-15T08:14:04;99379.41;;;6.25;100.00
62124;BME280;48110;47.532;19.078;2023-03-15T08:17:12;99386.16;;;6.35;100.00
62124;BME280;48110;47.532;19.078;2023-03-15T08:20:20;99383.53;;;6.27;100.00
62124;BME280;48110;47.532;19.078;2023-03-15T08:23:28;99381.72;;;6.20;100.00
62124;BME280;48110;47.532;19.078;2023-03-15T08:26:35;99388.00;;;6.27;99.56
62124;BME280;48110;47.532;19.078;2023-03-15T08:29:44;99396.88;;;6.26;100.00
62124;BME280;48110;47.532;19.078;2023-03-15T08:32:50;99401.31;;;6.25;98.78
62124;BME280;48110;47.532;19.078;2023-03-15T08:36:00;99396.03;;;6.25;97.33
62124;BME280;48110;47.532;19.078;2023-03-15T08:39:07;99415.00;;;6.29;97.23
62124;BME280;48110;47.532;19.078;2023-03-15T08:42:13;99421.22;;;6.20;96.62
62124;BME280;48110;47.532;19.078;2023-03-15T08:45:20;99417.94;;;6.26;95.39
62124;BME280;48110;47.532;19.078;2023-03-15T08:48:28;99427.16;;;6.30;94.96
62124;BME280;48110;47.532;19.078;2023-03-15T08:51:35;99438.03;;;6.27;93.20
62124;BME280;48110;47.532;19.078;2023-03-15T08:54:41;99449.53;;;6.18;92.88
62124;BME280;48110;47.532;19.078;2023-03-15T08:57:50;99450.19;;;6.20;92.80
62124;BME280;48110;47.532;19.078;2023-03-15T09:01:00;99449.38;;;6.19;91.43
62124;BME280;48110;47.532;19.078;2023-03-15T09:04:07;99460.72;;;6.20;90.04
62124;BME280;48110;47.532;19.078;2023-03-15T09:07:14;99469.78;;;6.25;89.79
62124;BME280;48110;47.532;19.078;2023-03-15T09:10:21;99474.06;;;6.18;88.22
62124;BME280;48110;47.532;19.078;2023-03-15T09:13:27;99489.53;;;6.21;88.08
62124;BME280;48110;47.532;19.078;2023-03-15T09:16:34;99497.78;;;6.26;86.82
62124;BME280;48110;47.532;19.078;2023-03-15T09:19:40;99501.72;;;6.22;86.13
62124;BME280;48110;47.532;19.078;2023-03-15T09:22:52;99505.34;;;6.13;85.73
62124;BME280;48110;47.532;19.078;2023-03-15T09:25:59;99512.59;;;6.27;87.00
62124;BME280;48110;47.532;19.078;2023-03-15T09:29:07;99520.31;;;6.21;84.36
62124;BME280;48110;47.532;19.078;2023-03-15T09:32:18;99524.25;;;6.08;86.15
62124;BME280;48110;47.532;19.078;2023-03-15T09:35:24;99526.41;;;6.13;85.29
62124;BME280;48110;47.532;19.078;2023-03-15T09:38:34;99534.16;;;6.15;84.44
62124;BME280;48110;47.532;19.078;2023-03-15T09:41:50;99541.03;;;6.07;83.65
62124;BME280;48110;47.532;19.078;2023-03-15T09:45:04;99549.91;;;6.06;84.90
62124;BME280;48110;47.532;19.078;2023-03-15T09:48:20;99580.88;;;6.21;82.90
62124;BME280;48110;47.532;19.078;2023-03-15T09:51:38;99557.50;;;6.18;81.97
62124;BME280;48110;47.532;19.078;2023-03-15T09:54:56;99570.84;;;6.16;83.50
62124;BME280;48110;47.532;19.078;2023-03-15T09:58:16;99572.81;;;6.14;82.02
62124;BME280;48110;47.532;19.078;2023-03-15T10:01:27;99563.91;;;6.15;83.17
62124;BME280;48110;47.532;19.078;2023-03-15T10:04:37;99561.97;;;6.25;82.78
62124;BME280;48110;47.532;19.078;2023-03-15T10:07:46;99553.13;;;6.42;82.17
62124;BME280;48110;47.532;19.078;2023-03-15T10:11:03;99555.94;;;6.49;80.04
62124;BME280;48110;47.532;19.078;2023-03-15T10:17:36;99556.12;;;6.47;80.81
62124;BME280;48110;47.532;19.078;2023-03-15T10:20:53;99563.19;;;6.47;79.99
62124;BME280;48110;47.532;19.078;2023-03-15T10:24:04;99563.53;;;6.60;77.57
62124;BME280;48110;47.532;19.078;2023-03-15T10:27:20;99572.94;;;6.79;76.75
62124;BME280;48110;47.532;19.078;2023-03-15T10:30:30;99568.84;;;6.92;75.39
62124;BME280;48110;47.532;19.078;2023-03-15T10:33:40;99576.41;;;6.87;73.45
62124;BME280;48110;47.532;19.078;2023-03-15T10:36:50;99577.75;;;7.24;71.02
62124;BME280;48110;47.532;19.078;2023-03-15T10:40:01;99585.00;;;7.22;69.45
62124;BME280;48110;47.532;19.078;2023-03-15T10:46:25;99591.44;;;7.19;69.28
62124;BME280;48110;47.532;19.078;2023-03-15T10:49:37;99598.50;;;7.51;67.36
62124;BME280;48110;47.532;19.078;2023-03-15T10:52:46;99584.31;;;7.52;66.37
62124;BME280;48110;47.532;19.078;2023-03-15T10:56:05;99584.66;;;7.41;67.79
62124;BME280;48110;47.532;19.078;2023-03-15T10:59:18;99584.66;;;7.33;66.44
62124;BME280;48110;47.532;19.078;2023-03-15T11:02:24;99593.22;;;7.51;66.31
62124;BME280;48110;47.532;19.078;2023-03-15T11:05:35;99591.06;;;7.63;65.83
62124;BME280;48110;47.532;19.078;2023-03-15T11:08:44;99600.81;;;7.54;65.99
62124;BME280;48110;47.532;19.078;2023-03-15T11:12:00;99597.44;;;7.93;65.80
62124;BME280;48110;47.532;19.078;2023-03-15T11:15:12;99599.00;;;8.18;63.77
62124;BME280;48110;47.532;19.078;2023-03-15T11:18:26;99611.31;;;8.34;63.61
62124;BME280;48110;47.532;19.078;2023-03-15T11:21:37;99620.94;;;8.26;62.26
62124;BME280;48110;47.532;19.078;2023-03-15T11:24:46;99602.41;;;8.35;60.78
62124;BME280;48110;47.532;19.078;2023-03-15T11:27:56;99620.09;;;8.65;60.35
62124;BME280;48110;47.532;19.078;2023-03-15T11:31:05;99623.12;;;8.54;60.10
62124;BME280;48110;47.532;19.078;2023-03-15T11:34:25;99619.44;;;8.24;60.36
62124;BME280;48110;47.532;19.078;2023-03-15T11:37:40;99617.12;;;8.37;60.26
62124;BME280;48110;47.532;19.078;2023-03-15T11:40:52;99618.16;;;8.59;59.69
62124;BME280;48110;47.532;19.078;2023-03-15T11:47:27;99626.22;;;8.65;58.97
62124;BME280;48110;47.532;19.078;2023-03-15T11:50:39;99620.13;;;9.10;57.59
62124;BME280;48110;47.532;19.078;2023-03-15T11:53:47;99625.13;;;9.28;57.48
62124;BME280;48110;47.532;19.078;2023-03-15T11:56:56;99627.28;;;9.47;56.22
62124;BME280;48110;47.532;19.078;2023-03-15T12:03:41;99628.75;;;9.50;57.03
62124;BME280;48110;47.532;19.078;2023-03-15T12:06:48;99629.94;;;9.25;55.19
62124;BME280;48110;47.532;19.078;2023-03-15T12:13:21;99634.47;;;9.76;54.65
62124;BME280;48110;47.532;19.078;2023-03-15T12:16:38;99646.06;;;9.38;53.73
62124;BME280;48110;47.532;19.078;2023-03-15T12:19:44;99633.50;;;9.54;55.61
62124;BME280;48110;47.532;19.078;2023-03-15T12:22:53;99645.66;;;9.64;52.50
62124;BME280;48110;47.532;19.078;2023-03-15T12:32:11;99643.66;;;9.66;53.15
62124;BME280;48110;47.532;19.078;2023-03-15T12:35:18;99654.84;;;9.90;52.11
62124;BME280;48110;47.532;19.078;2023-03-15T12:38:24;99658.09;;;9.40;52.01
62124;BME280;48110;47.532;19.078;2023-03-15T12:41:34;99656.78;;;9.22;52.34
62124;BME280;48110;47.532;19.078;2023-03-15T12:44:43;99649.28;;;9.25;52.10
62124;BME280;48110;47.532;19.078;2023-03-15T12:51:02;99655.81;;;9.75;49.64
62124;BME280;48110;47.532;19.078;2023-03-15T12:54:10;99661.03;;;9.45;49.88
62124;BME280;48110;47.532;19.078;2023-03-15T12:57:23;99652.16;;;9.15;50.48
62124;BME280;48110;47.532;19.078;2023-03-15T13:00:36;99663.78;;;9.14;49.34
62124;BME280;48110;47.532;19.078;2023-03-15T13:03:41;99664.31;;;9.33;47.76
62124;BME280;48110;47.532;19.078;2023-03-15T13:10:39;99679.69;;;9.52;47.57
62124;BME280;48110;47.532;19.078;2023-03-15T13:21:01;99686.28;;;9.10;46.77
62124;BME280;48110;47.532;19.078;2023-03-15T13:24:11;99688.41;;;9.38;46.64
62124;BME280;48110;47.532;19.078;2023-03-15T13:27:27;99691.91;;;9.38;45.92
62124;BME280;48110;47.532;19.078;2023-03-15T13:30:48;99694.88;;;9.12;47.19
62124;BME280;48110;47.532;19.078;2023-03-15T13:34:14;99701.91;;;8.97;46.04
62124;BME280;48110;47.532;19.078;2023-03-15T13:37:28;99706.63;;;8.79;46.27
62124;BME280;48110;47.532;19.078;2023-03-15T13:40:44;99701.81;;;9.13;46.00
62124;BME280;48110;47.532;19.078;2023-03-15T13:43:54;99718.09;;;9.02;45.65
62124;BME280;48110;47.532;19.078;2023-03-15T13:47:01;99718.06;;;8.71;46.66
62124;BME280;48110;47.532;19.078;2023-03-15T13:50:13;99715.56;;;8.78;46.39
62124;BME280;48110;47.532;19.078;2023-03-15T13:53:23;99721.84;;;9.08;45.48
62124;BME280;48110;47.532;19.078;2023-03-15T14:00:06;99730.38;;;8.95;46.57
62124;BME280;48110;47.532;19.078;2023-03-15T14:03:20;99740.53;;;8.76;44.54
62124;BME280;48110;47.532;19.078;2023-03-15T14:06:26;99738.62;;;8.92;45.15
62124;BME280;48110;47.532;19.078;2023-03-15T14:09:38;99742.37;;;8.67;44.43
62124;BME280;48110;47.532;19.078;2023-03-15T14:12:44;99750.50;;;8.65;45.33
62124;BME280;48110;47.532;19.078;2023-03-15T14:15:55;99758.44;;;8.65;44.22
62124;BME280;48110;47.532;19.078;2023-03-15T14:19:20;99758.63;;;8.48;44.05
62124;BME280;48110;47.532;19.078;2023-03-15T14:22:28;99752.38;;;8.24;45.56
62124;BME280;48110;47.532;19.078;2023-03-15T14:25:38;99763.94;;;8.23;45.10
62124;BME280;48110;47.532;19.078;2023-03-15T14:28:55;99770.56;;;8.11;44.56
62124;BME280;48110;47.532;19.078;2023-03-15T14:32:07;99766.44;;;8.01;45.71
62124;BME280;48110;47.532;19.078;2023-03-15T14:35:22;99775.50;;;8.14;44.97
62124;BME280;48110;47.532;19.078;2023-03-15T14:38:33;99780.97;;;8.13;45.14
62124;BME280;48110;47.532;19.078;2023-03-15T14:41:41;99785.25;;;8.14;45.39
62124;BME280;48110;47.532;19.078;2023-03-15T14:44:48;99784.44;;;8.21;44.83
62124;BME280;48110;47.532;19.078;2023-03-15T14:47:57;99782.97;;;8.03;45.70
62124;BME280;48110;47.532;19.078;2023-03-15T14:51:06;99788.25;;;7.86;45.72
62124;BME280;48110;47.532;19.078;2023-03-15T14:54:17;99790.06;;;7.86;45.56
62124;BME280;48110;47.532;19.078;2023-03-15T14:57:25;99787.22;;;7.79;45.90
62124;BME280;48110;47.532;19.078;2023-03-15T15:00:38;99797.66;;;7.65;45.47
62124;BME280;48110;47.532;19.078;2023-03-15T15:03:49;99804.72;;;7.64;45.84
62124;BME280;48110;47.532;19.078;2023-03-15T15:06:59;99815.97;;;7.82;46.04
62124;BME280;48110;47.532;19.078;2023-03-15T15:10:07;99820.00;;;7.36;46.16
62124;BME280;48110;47.532;19.078;2023-03-15T15:13:22;99831.28;;;7.55;46.21
62124;BME280;48110;47.532;19.078;2023-03-15T15:16:29;99831.59;;;7.52;45.86
62124;BME280;48110;47.532;19.078;2023-03-15T15:19:38;99836.72;;;7.53;46.35
62124;BME280;48110;47.532;19.078;2023-03-15T15:22:52;99840.53;;;7.67;46.69
62124;BME280;48110;47.532;19.078;2023-03-15T15:26:00;99846.78;;;7.66;45.31
62124;BME280;48110;47.532;19.078;2023-03-15T15:29:08;99867.41;;;7.62;45.05
62124;BME280;48110;47.532;19.078;2023-03-15T15:32:18;99869.47;;;7.34;45.07
62124;BME280;48110;47.532;19.078;2023-03-15T15:35:24;99873.94;;;7.34;45.04
62124;BME280;48110;47.532;19.078;2023-03-15T15:38:31;99868.97;;;7.31;45.56
62124;BME280;48110;47.532;19.078;2023-03-15T15:41:40;99870.25;;;7.27;45.67
62124;BME280;48110;47.532;19.078;2023-03-15T15:44:46;99881.13;;;7.24;45.11
62124;BME280;48110;47.532;19.078;2023-03-15T15:47:52;99881.97;;;7.24;45.25
62124;BME280;48110;47.532;19.078;2023-03-15T15:50:59;99883.66;;;7.33;45.45
62124;BME280;48110;47.532;19.078;2023-03-15T15:54:04;99886.56;;;7.22;45.14
62124;BME280;48110;47.532;19.078;2023-03-15T15:57:11;99893.28;;;7.17;45.22
62124;BME280;48110;47.532;19.078;2023-03-15T16:00:19;99904.56;;;7.27;44.63
62124;BME280;48110;47.532;19.078;2023-03-15T16:03:29;99901.44;;;7.31;45.24
62124;BME280;48110;47.532;19.078;2023-03-15T16:06:35;99908.50;;;7.23;45.10
62124;BME280;48110;47.532;19.078;2023-03-15T16:09:42;99907.50;;;7.16;44.51
62124;BME280;48110;47.532;19.078;2023-03-15T16:12:51;99924.44;;;7.13;44.70
62124;BME280;48110;47.532;19.078;2023-03-15T16:15:57;99923.22;;;6.99;44.21
62124;BME280;48110;47.532;19.078;2023-03-15T16:19:04;99923.84;;;6.93;43.59
62124;BME280;48110;47.532;19.078;2023-03-15T16:22:13;99923.53;;;6.96;44.23
62124;BME280;48110;47.532;19.078;2023-03-15T16:25:20;99931.09;;;6.91;43.90
62124;BME280;48110;47.532;19.078;2023-03-15T16:28:30;99935.16;;;6.86;43.29
62124;BME280;48110;47.532;19.078;2023-03-15T16:31:40;99944.78;;;6.95;42.97
62124;BME280;48110;47.532;19.078;2023-03-15T16:34:47;99944.88;;;6.85;43.36
62124;BME280;48110;47.532;19.078;2023-03-15T16:37:54;99943.00;;;6.78;43.42
62124;BME280;48110;47.532;19.078;2023-03-15T16:41:04;99951.22;;;6.75;44.17
62124;BME280;48110;47.532;19.078;2023-03-15T16:44:13;99961.25;;;6.71;43.32
62124;BME280;48110;47.532;19.078;2023-03-15T16:47:20;99964.66;;;6.64;43.24
62124;BME280;48110;47.532;19.078;2023-03-15T16:50:29;99978.59;;;6.56;43.90
62124;BME280;48110;47.532;19.078;2023-03-15T16:53:37;99968.97;;;6.47;42.94
62124;BME280;48110;47.532;19.078;2023-03-15T16:56:49;99978.22;;;6.51;43.04
62124;BME280;48110;47.532;19.078;2023-03-15T16:59:56;99989.97;;;6.39;43.40
62124;BME280;48110;47.532;19.078;2023-03-15T17:03:01;99999.59;;;6.30;43.47
62124;BME280;48110;47.532;19.078;2023-03-15T17:06:13;99993.66;;;6.28;43.66
62124;BME280;48110;47.532;19.078;2023-03-15T17:09:21;100000.63;;;6.20;44.20
62124;BME280;48110;47.532;19.078;2023-03-15T17:12:28;100014.84;;;6.09;44.65
62124;BME280;48110;47.532;19.078;2023-03-15T17:15:34;100030.09;;;6.05;44.94
62124;BME280;48110;47.532;19.078;2023-03-15T17:18:38;100001.88;;;5.98;45.14